METAR Data

Data at: 1010 UTC 21 Apr 2021

METAR for:CYZX (Greenwood (MIL), NS, CN)
Text:CYZX 211000Z 32007KT 15SM -SHRA SCT065 OVC075 06/05 A2993 RMK SC4AC4 SLP135
Temperature: 6.0°C ( 43°F)
Dewpoint: 5.0°C ( 41°F) [RH = 93%]
Pressure (altimeter):29.93 inches Hg (1013.6 mb) [Sea level pressure: 1013.5 mb]
Winds:from the NW (320 degrees) at 8 MPH (7 knots; 3.6 m/s)
Visibility: 15 sm ( 24 km)
Ceiling:7500 feet AGL
Clouds: scattered clouds at 6500 feet AGL, overcast cloud deck at 7500 feet AGL
Weather:-SHRA (light rain showers)